createdAt,value
2018-11-05T00:01:30.888Z,5.17
2018-11-05T00:03:58.456Z,2.70
2018-11-05T00:06:26.040Z,5.73
2018-11-05T00:08:53.580Z,10.00
2018-11-05T00:11:21.060Z,5.07
2018-11-05T00:13:48.559Z,6.73
2018-11-05T00:16:16.077Z,5.77
2018-11-05T00:18:43.608Z,6.93
2018-11-05T00:21:11.277Z,5.90
2018-11-05T00:23:38.791Z,5.20
2018-11-05T00:26:06.343Z,4.13
2018-11-05T00:28:34.504Z,8.93
2018-11-05T00:31:02.029Z,5.53
2018-11-05T00:33:29.639Z,7.47
2018-11-05T00:35:57.177Z,5.63
2018-11-05T00:38:24.740Z,4.43
2018-11-05T00:40:52.336Z,4.90
2018-11-05T00:43:19.977Z,5.77
2018-11-05T00:45:47.841Z,4.43
2018-11-05T00:48:15.271Z,3.00
2018-11-05T00:50:42.803Z,5.67
2018-11-05T00:53:10.531Z,4.30
2018-11-05T00:55:38.408Z,2.40
2018-11-05T00:58:06.199Z,3.87
2018-11-05T01:00:33.824Z,4.70
2018-11-05T01:03:01.830Z,4.30
2018-11-05T01:05:29.477Z,7.77
2018-11-05T01:07:56.991Z,4.33
2018-11-05T01:10:24.503Z,3.93
2018-11-05T01:12:52.081Z,3.97
2018-11-05T01:15:19.709Z,4.40
2018-11-05T01:17:47.295Z,8.47
2018-11-05T01:20:15.759Z,6.07
2018-11-05T01:22:43.277Z,6.03
2018-11-05T01:25:10.985Z,8.00
2018-11-05T01:27:38.612Z,3.70
2018-11-05T01:30:07.414Z,7.93
2018-11-05T01:32:34.919Z,5.17
2018-11-05T01:35:02.419Z,6.23
2018-11-05T01:37:29.952Z,6.13
2018-11-05T01:39:57.468Z,10.27
2018-11-05T01:42:24.998Z,8.00
2018-11-05T01:44:52.484Z,5.73
2018-11-05T01:47:20.123Z,4.53
2018-11-05T01:49:48.083Z,3.37
2018-11-05T01:52:15.911Z,4.17
2018-11-05T01:54:43.457Z,4.13
2018-11-05T01:57:11.249Z,5.47
2018-11-05T01:59:38.772Z,4.37
2018-11-05T02:02:06.548Z,6.13
2018-11-05T02:04:34.130Z,6.03
2018-11-05T02:07:02.119Z,8.37
2018-11-05T02:09:29.641Z,4.77
2018-11-05T02:11:57.164Z,4.37
2018-11-05T02:14:25.491Z,6.13
2018-11-05T02:16:53.003Z,5.33
2018-11-05T02:19:21.228Z,4.17
2018-11-05T02:21:49.270Z,5.93
2018-11-05T02:24:16.943Z,3.70
2018-11-05T02:26:44.388Z,5.33
2018-11-05T02:29:11.943Z,6.20
2018-11-05T02:31:39.420Z,5.70
2018-11-05T02:34:07.250Z,3.00
2018-11-05T02:36:34.752Z,6.20
2018-11-05T02:39:02.361Z,3.13
2018-11-05T02:41:30.050Z,4.27
2018-11-05T02:43:57.673Z,4.73
2018-11-05T02:46:25.223Z,7.93
2018-11-05T02:48:52.853Z,4.33
2018-11-05T02:51:21.221Z,4.20
2018-11-05T02:53:49.114Z,2.90
2018-11-05T02:56:16.651Z,7.03
2018-11-05T02:58:44.148Z,7.57
2018-11-05T03:01:11.672Z,7.13
2018-11-05T03:03:39.603Z,6.97
2018-11-05T03:06:07.126Z,4.30
2018-11-05T03:08:34.687Z,4.23
2018-11-05T03:11:02.326Z,3.90
2018-11-05T03:13:29.867Z,3.83
2018-11-05T03:15:57.434Z,5.13
2018-11-05T03:18:24.987Z,4.10
2018-11-05T03:20:52.772Z,4.40
2018-11-05T03:23:20.518Z,3.60
2018-11-05T03:25:48.587Z,3.90
2018-11-05T03:28:16.162Z,4.43
2018-11-05T03:30:43.845Z,4.63
2018-11-05T03:33:11.368Z,4.63
2018-11-05T03:35:39.887Z,8.70
2018-11-05T03:38:07.332Z,4.70
2018-11-05T03:40:41.360Z,4.83
2018-11-05T03:43:08.924Z,5.70
2018-11-05T03:45:36.553Z,4.10
2018-11-05T03:48:04.254Z,8.20
2018-11-05T03:50:32.260Z,2.93
2018-11-05T03:52:59.784Z,3.43
2018-11-05T03:55:27.329Z,8.67
2018-11-05T03:57:55.713Z,4.03
2018-11-05T04:00:23.304Z,2.60
2018-11-05T04:02:50.779Z,4.50
2018-11-05T04:05:18.280Z,4.80
2018-11-05T04:07:45.838Z,3.50
2018-11-05T04:10:14.017Z,3.27
2018-11-05T04:12:41.634Z,3.60
2018-11-05T04:15:09.405Z,3.87
2018-11-05T04:17:36.909Z,3.50
2018-11-05T04:20:04.675Z,5.60
2018-11-05T04:22:32.502Z,4.17
2018-11-05T04:25:00.230Z,3.93
2018-11-05T04:27:28.117Z,3.67
2018-11-05T04:29:55.580Z,4.53
2018-11-05T04:32:23.228Z,3.30
2018-11-05T04:34:50.716Z,7.23
2018-11-05T04:37:18.305Z,6.73
2018-11-05T04:39:45.967Z,4.40
2018-11-05T04:42:13.511Z,6.03
2018-11-05T04:44:41.019Z,5.50
2018-11-05T04:47:08.661Z,6.27
2018-11-05T04:49:36.307Z,6.83
2018-11-05T04:52:04.012Z,3.60
2018-11-05T04:54:31.727Z,4.03
2018-11-05T04:56:59.236Z,4.63
2018-11-05T04:59:26.960Z,3.50
2018-11-05T05:01:54.478Z,4.73
2018-11-05T05:04:23.531Z,4.17
2018-11-05T05:06:51.070Z,3.30
2018-11-05T05:09:18.532Z,2.93
2018-11-05T05:11:46.320Z,5.83
2018-11-05T05:14:14.287Z,5.17
2018-11-05T05:16:41.758Z,4.37
2018-11-05T05:19:09.323Z,6.87
2018-11-05T05:21:37.132Z,3.63
2018-11-05T05:24:05.049Z,6.83
2018-11-05T05:26:32.551Z,5.57
2018-11-05T05:29:00.057Z,4.97
2018-11-05T05:31:27.572Z,4.57
2018-11-05T05:33:55.137Z,6.13
2018-11-05T05:36:23.812Z,4.73
2018-11-05T05:38:51.724Z,5.60
2018-11-05T05:41:19.320Z,3.97
2018-11-05T05:43:46.815Z,4.40
2018-11-05T05:46:14.436Z,5.07
2018-11-05T05:48:41.921Z,5.03
2018-11-05T05:51:09.577Z,9.67
2018-11-05T05:53:37.137Z,4.97
2018-11-05T05:56:04.967Z,6.87
2018-11-05T05:58:32.405Z,4.23
2018-11-05T06:01:01.421Z,4.10
2018-11-05T06:03:29.137Z,5.70
2018-11-05T06:05:56.765Z,4.73
2018-11-05T06:08:25.251Z,4.73
2018-11-05T06:10:52.809Z,3.80
2018-11-05T06:13:20.404Z,4.13
2018-11-05T06:15:48.013Z,4.53
2018-11-05T06:18:15.541Z,3.90
2018-11-05T06:20:43.054Z,6.93
2018-11-05T06:23:10.582Z,3.30
2018-11-05T06:25:38.054Z,4.87
2018-11-05T06:28:05.643Z,5.90
2018-11-05T06:30:33.379Z,5.40
2018-11-05T06:33:01.187Z,5.93
2018-11-05T06:35:29.557Z,5.13
2018-11-05T06:37:56.988Z,7.30
2018-11-05T06:40:25.170Z,5.13
2018-11-05T06:42:52.832Z,5.03
2018-11-05T06:45:21.958Z,3.87
2018-11-05T06:47:49.545Z,4.97
2018-11-05T06:50:19.216Z,6.60
2018-11-05T06:52:46.938Z,5.67
2018-11-05T06:55:16.029Z,3.30
2018-11-05T06:57:43.588Z,4.23
2018-11-05T07:00:13.573Z,6.13
2018-11-05T07:02:42.397Z,6.13
2018-11-05T07:05:09.875Z,7.90
2018-11-05T07:07:37.716Z,5.63
2018-11-05T07:10:05.884Z,4.57
2018-11-05T07:12:34.706Z,7.40
2018-11-05T07:15:02.300Z,8.23
2018-11-05T07:17:30.092Z,7.40
2018-11-05T07:19:57.657Z,9.10
2018-11-05T07:22:25.231Z,9.10
2018-11-05T07:24:52.732Z,6.10
2018-11-05T07:27:20.608Z,10.77
2018-11-05T07:29:48.899Z,10.73
2018-11-05T07:32:16.431Z,6.03
2018-11-05T07:34:43.892Z,9.33
2018-11-05T07:37:11.387Z,7.13
2018-11-05T07:39:45.437Z,6.17
2018-11-05T07:42:12.903Z,9.03
2018-11-05T07:44:40.536Z,8.00
2018-11-05T07:47:08.080Z,6.43
2018-11-05T07:49:35.833Z,10.40
2018-11-05T07:52:03.376Z,10.27
2018-11-05T07:54:31.427Z,9.03
2018-11-05T07:56:59.042Z,9.77
2018-11-05T07:59:27.343Z,10.33
2018-11-05T08:01:54.939Z,9.33
2018-11-05T08:04:22.476Z,13.03
2018-11-05T08:06:50.029Z,8.20
2018-11-05T08:09:17.857Z,8.83
2018-11-05T08:11:45.460Z,10.67
2018-11-05T08:14:13.079Z,7.33
2018-11-05T08:16:40.575Z,8.70
2018-11-05T08:19:09.984Z,11.17
2018-11-05T08:21:37.471Z,10.40
2018-11-05T08:24:05.183Z,10.73
2018-11-05T08:26:32.776Z,10.43
2018-11-05T08:29:00.773Z,9.47
2018-11-05T08:31:28.292Z,13.27
2018-11-05T08:33:55.837Z,12.37
2018-11-05T08:36:23.372Z,10.63
2018-11-05T08:38:50.849Z,15.47
2018-11-05T08:41:18.405Z,11.67
2018-11-05T08:43:45.938Z,15.03
2018-11-05T08:46:13.547Z,12.53
2018-11-05T08:48:41.244Z,12.33
2018-11-05T08:51:09.061Z,17.13
2018-11-05T08:53:36.531Z,11.27
2018-11-05T08:56:04.461Z,17.90
2018-11-05T08:58:32.020Z,13.17
2018-11-05T09:01:04.982Z,8.87
2018-11-05T09:03:32.500Z,14.13
2018-11-05T09:06:01.220Z,9.33
2018-11-05T09:08:28.782Z,9.83
2018-11-05T09:10:56.814Z,10.20
2018-11-05T09:13:23.983Z,12.67
2018-11-05T09:15:51.452Z,11.23
2018-11-05T09:18:19.487Z,8.23
2018-11-05T09:20:47.258Z,8.27
2018-11-05T09:23:14.996Z,10.77
2018-11-05T09:25:43.647Z,10.80
2018-11-05T09:28:11.153Z,8.43
2018-11-05T09:30:39.041Z,10.07
2018-11-05T09:33:07.010Z,9.33
2018-11-05T09:35:34.624Z,10.00
2018-11-05T09:38:02.214Z,9.30
2018-11-05T09:40:30.041Z,8.60
2018-11-05T09:42:57.700Z,7.77
2018-11-05T09:45:26.351Z,9.10
2018-11-05T09:47:53.823Z,8.50
2018-11-05T09:50:21.423Z,10.63
2018-11-05T09:52:48.916Z,6.80
2018-11-05T09:55:16.619Z,6.50
2018-11-05T09:57:44.348Z,12.10
2018-11-05T10:00:15.299Z,8.80
2018-11-05T10:02:48.153Z,8.90
2018-11-05T10:05:16.810Z,6.80
2018-11-05T10:07:45.535Z,9.70
2018-11-05T10:10:14.558Z,10.57
2018-11-05T10:12:42.304Z,7.47
2018-11-05T10:15:11.881Z,7.13
2018-11-05T10:17:40.200Z,6.03
2018-11-05T10:20:09.885Z,6.77
2018-11-05T10:22:37.468Z,6.03
2018-11-05T10:25:08.037Z,8.57
2018-11-05T10:27:35.539Z,5.60
2018-11-05T10:30:03.106Z,4.37
2018-11-05T10:32:31.124Z,3.77
2018-11-05T10:34:58.956Z,9.00
2018-11-05T10:37:26.632Z,7.50
2018-11-05T10:40:01.410Z,4.50
2018-11-05T10:42:31.720Z,6.33
2018-11-05T10:44:59.868Z,4.93
2018-11-05T10:47:27.594Z,6.43
2018-11-05T10:49:55.079Z,4.90
2018-11-05T10:52:22.717Z,5.43
2018-11-05T10:54:50.223Z,4.43
2018-11-05T10:57:17.751Z,5.93
2018-11-05T10:59:45.255Z,6.50
2018-11-05T11:02:18.083Z,4.53
2018-11-05T11:04:45.608Z,5.47
2018-11-05T11:07:13.463Z,6.50
2018-11-05T11:09:41.088Z,4.43
2018-11-05T11:12:08.619Z,4.90
2018-11-05T11:14:37.256Z,5.67
2018-11-05T11:17:07.176Z,6.90
2018-11-05T11:19:35.299Z,4.80
2018-11-05T11:22:03.026Z,5.57
2018-11-05T11:24:31.112Z,5.13
2018-11-05T11:26:58.685Z,6.43
2018-11-05T11:29:26.359Z,8.50
2018-11-05T11:31:53.925Z,6.13
2018-11-05T11:34:25.494Z,6.13
2018-11-05T11:36:56.599Z,6.20
2018-11-05T11:39:24.488Z,6.27
2018-11-05T11:41:52.282Z,6.87
2018-11-05T11:44:21.124Z,6.33
2018-11-05T11:46:49.240Z,8.27
2018-11-05T11:49:16.752Z,7.93
2018-11-05T11:51:46.079Z,7.27
2018-11-05T11:54:15.659Z,6.87
2018-11-05T11:56:43.220Z,8.13
2018-11-05T11:59:12.239Z,6.07
2018-11-05T12:01:46.035Z,8.63
2018-11-05T12:04:15.080Z,6.70
2018-11-05T12:06:42.945Z,7.97
2018-11-05T12:09:11.053Z,7.63
2018-11-05T12:11:38.847Z,8.23
2018-11-05T12:14:06.633Z,5.87
2018-11-05T12:16:34.980Z,8.37
2018-11-05T12:19:02.839Z,8.67
2018-11-05T12:21:32.160Z,8.40
2018-11-05T12:23:59.988Z,10.17
2018-11-05T12:26:28.485Z,8.77
2018-11-05T12:28:57.076Z,10.67
2018-11-05T12:31:27.280Z,11.40
2018-11-05T12:33:55.717Z,9.83
2018-11-05T12:36:24.541Z,10.97
2018-11-05T12:38:53.705Z,11.57
2018-11-05T12:41:21.659Z,13.77
2018-11-05T12:43:50.875Z,10.83
2018-11-05T12:46:18.776Z,10.87
2018-11-05T12:48:46.612Z,14.07
2018-11-05T12:51:14.614Z,12.40
2018-11-05T12:53:42.616Z,13.97
2018-11-05T12:56:10.273Z,11.10
2018-11-05T12:58:38.760Z,11.13
2018-11-05T13:01:06.889Z,10.63
2018-11-05T13:03:36.496Z,10.87
2018-11-05T13:06:04.296Z,11.43
2018-11-05T13:08:32.996Z,11.90
2018-11-05T13:13:39.039Z,12.27
2018-11-05T13:16:07.344Z,10.27
2018-11-05T13:18:35.612Z,11.83
2018-11-05T13:21:03.325Z,9.07
2018-11-05T13:23:36.485Z,9.77
2018-11-05T13:26:04.659Z,8.43
2018-11-05T13:28:33.124Z,9.63
2018-11-05T13:31:01.401Z,11.30
2018-11-05T13:33:29.130Z,9.20
2018-11-05T13:35:57.047Z,8.57
2018-11-05T13:38:24.975Z,8.23
2018-11-05T13:40:52.600Z,10.90
2018-11-05T13:43:20.322Z,8.83
2018-11-05T13:45:50.268Z,10.07
2018-11-05T13:48:19.156Z,8.83
2018-11-05T13:50:48.344Z,10.40
2018-11-05T13:53:17.401Z,10.13
2018-11-05T13:55:50.803Z,12.03
2018-11-05T14:00:56.543Z,11.43
2018-11-05T14:03:29.967Z,14.43
2018-11-05T14:05:59.389Z,11.23
2018-11-05T14:08:32.511Z,14.40
2018-11-05T14:11:04.313Z,10.80
2018-11-05T14:13:33.567Z,10.43
2018-11-05T14:16:02.281Z,11.07
2018-11-05T14:18:33.652Z,11.30
2018-11-05T14:21:03.862Z,23.57
2018-11-05T14:23:32.564Z,15.47
2018-11-05T14:26:01.331Z,14.90
2018-11-05T14:28:31.222Z,10.63
2018-11-05T14:30:59.368Z,10.30
2018-11-05T14:33:27.570Z,8.93
2018-11-05T14:35:59.422Z,10.60
2018-11-05T14:38:29.026Z,12.50
2018-11-05T14:40:57.233Z,10.83
2018-11-05T14:43:24.979Z,10.03
2018-11-05T14:45:54.659Z,10.23
2018-11-05T14:48:25.186Z,6.80
2018-11-05T14:50:56.432Z,7.50
2018-11-05T14:53:25.017Z,6.93
2018-11-05T14:55:53.014Z,7.60
2018-11-05T14:58:21.092Z,7.57
2018-11-05T15:00:50.828Z,6.57
2018-11-05T15:03:19.567Z,6.30
2018-11-05T15:05:48.497Z,6.30
2018-11-05T15:08:16.826Z,7.23
2018-11-05T15:10:47.296Z,5.97
2018-11-05T15:13:15.560Z,8.57
2018-11-05T15:15:44.274Z,9.27
2018-11-05T15:18:12.214Z,9.90
2018-11-05T15:20:40.363Z,6.93
2018-11-05T15:23:09.400Z,7.33
2018-11-05T15:25:38.406Z,7.70
2018-11-05T15:28:06.701Z,6.07
2018-11-05T15:30:36.060Z,5.17
2018-11-05T15:33:04.990Z,6.10
2018-11-05T15:35:33.328Z,5.50
2018-11-05T15:38:02.309Z,7.03
2018-11-05T15:43:16.935Z,5.77
2018-11-05T15:45:45.744Z,6.07
2018-11-05T15:48:14.686Z,5.20
2018-11-05T15:50:43.616Z,4.83
2018-11-05T15:53:13.454Z,5.80
2018-11-05T15:55:41.653Z,5.67
2018-11-05T15:58:10.189Z,4.70
2018-11-05T16:00:38.581Z,4.50
2018-11-05T16:03:06.441Z,4.37
2018-11-05T16:05:34.207Z,4.33
2018-11-05T16:08:02.869Z,5.10
2018-11-05T16:10:30.788Z,4.73
2018-11-05T16:12:59.271Z,5.20
2018-11-05T16:15:29.276Z,4.77
2018-11-05T16:17:56.979Z,4.43
2018-11-05T16:20:29.440Z,4.90
2018-11-05T16:22:58.411Z,4.70
2018-11-05T16:25:26.646Z,8.83
2018-11-05T16:27:57.210Z,5.53
2018-11-05T16:30:25.097Z,4.13
2018-11-05T16:32:53.486Z,4.67
2018-11-05T16:35:21.514Z,4.70
2018-11-05T16:37:51.369Z,4.17
2018-11-05T16:43:00.462Z,5.30
2018-11-05T16:45:29.505Z,5.10
2018-11-05T16:47:57.695Z,4.73
2018-11-05T16:50:34.522Z,5.03
2018-11-05T16:53:03.040Z,4.10
2018-11-05T16:55:31.478Z,4.40
2018-11-05T16:57:59.267Z,4.50
2018-11-05T17:00:27.808Z,5.00
2018-11-05T17:02:56.064Z,4.77
2018-11-05T17:05:24.009Z,4.20
2018-11-05T17:08:03.922Z,4.57
2018-11-05T17:10:32.379Z,4.87
2018-11-05T17:13:01.865Z,4.10
2018-11-05T17:15:34.980Z,4.97
2018-11-05T17:18:05.220Z,4.70
2018-11-05T17:20:34.320Z,5.43
2018-11-05T17:23:03.017Z,4.97
2018-11-05T17:25:34.547Z,5.33
2018-11-05T17:28:02.781Z,5.80
2018-11-05T17:30:32.297Z,4.97
2018-11-05T17:33:01.417Z,5.13
2018-11-05T17:35:29.886Z,5.30
2018-11-05T17:37:59.933Z,6.23
2018-11-05T17:40:29.639Z,6.13
2018-11-05T17:42:57.985Z,6.13
2018-11-05T17:45:26.337Z,6.20
2018-11-05T17:47:54.511Z,6.00
2018-11-05T17:50:24.566Z,5.67
2018-11-05T17:52:52.635Z,6.13
2018-11-05T17:55:22.759Z,5.23
2018-11-05T17:57:50.545Z,6.63
2018-11-05T18:00:21.189Z,5.40
2018-11-05T18:02:48.854Z,5.50
2018-11-05T18:05:17.116Z,5.27
2018-11-05T18:07:45.207Z,5.70
2018-11-05T18:10:15.043Z,5.20
2018-11-05T18:12:45.196Z,4.73
2018-11-05T18:15:13.879Z,5.30
2018-11-05T18:17:42.876Z,6.00
2018-11-05T18:20:11.639Z,4.93
2018-11-05T18:22:39.834Z,4.60
2018-11-05T18:25:09.902Z,4.20
2018-11-05T18:27:38.678Z,4.83
2018-11-05T18:30:06.512Z,4.13
2018-11-05T18:32:34.550Z,4.47
2018-11-05T18:35:04.020Z,4.77
2018-11-05T18:37:36.051Z,5.57
2018-11-05T18:40:04.470Z,4.33
2018-11-05T18:42:32.509Z,4.13
2018-11-05T18:45:04.226Z,3.90
2018-11-05T18:47:37.196Z,3.73
2018-11-05T18:50:06.723Z,4.80
2018-11-05T18:52:35.873Z,4.40
2018-11-05T18:55:05.887Z,6.40
2018-11-05T18:57:37.840Z,4.30
2018-11-05T19:00:10.202Z,5.27
2018-11-05T19:02:38.864Z,4.53
2018-11-05T19:05:07.061Z,4.53
2018-11-05T19:07:43.874Z,3.60
2018-11-05T19:10:12.167Z,4.33
2018-11-05T19:12:40.520Z,4.80
2018-11-05T19:17:46.121Z,3.97
2018-11-05T19:20:17.473Z,3.30
2018-11-05T19:22:46.907Z,3.40
2018-11-05T19:25:23.001Z,3.50
2018-11-05T19:27:50.929Z,3.57
2018-11-05T19:30:25.005Z,2.97
2018-11-05T19:32:54.763Z,3.20
2018-11-05T19:35:22.916Z,2.97
2018-11-05T19:37:51.509Z,3.23
2018-11-05T19:40:20.304Z,3.30
2018-11-05T19:42:49.664Z,2.93
2018-11-05T19:45:18.631Z,3.17
2018-11-05T19:47:47.000Z,3.40
2018-11-05T19:50:17.366Z,4.70
2018-11-05T19:52:46.378Z,3.70
2018-11-05T19:55:19.178Z,3.83
2018-11-05T19:57:48.281Z,4.70
2018-11-05T20:00:18.723Z,4.00
2018-11-05T20:05:20.382Z,3.73
2018-11-05T20:07:52.825Z,4.40
2018-11-05T20:10:21.124Z,4.73
2018-11-05T20:12:51.329Z,2.93
2018-11-05T20:15:20.366Z,3.27
2018-11-05T20:17:49.321Z,2.80
2018-11-05T20:20:19.340Z,3.10
2018-11-05T20:22:48.352Z,3.20
2018-11-05T20:25:16.602Z,2.80
2018-11-05T20:27:45.621Z,2.70
2018-11-05T20:30:15.791Z,2.70
2018-11-05T20:32:48.982Z,2.77
2018-11-05T20:35:17.542Z,2.83
2018-11-05T20:37:49.972Z,3.33
2018-11-05T20:40:36.726Z,4.90
2018-11-05T20:43:06.260Z,2.80
2018-11-05T20:45:43.370Z,3.07
2018-11-05T20:50:53.540Z,3.37
2018-11-05T20:53:21.680Z,3.17
2018-11-05T20:55:51.705Z,3.20
2018-11-05T20:58:24.305Z,3.13
2018-11-05T21:00:53.470Z,5.23
2018-11-05T21:03:26.538Z,3.30
2018-11-05T21:05:55.772Z,4.20
2018-11-05T21:08:24.887Z,3.47
2018-11-05T21:10:53.153Z,3.20
2018-11-05T21:13:21.133Z,3.13
2018-11-05T21:15:49.634Z,3.17
2018-11-05T21:18:21.348Z,3.23
2018-11-05T21:20:49.457Z,3.20
2018-11-05T21:23:17.453Z,3.13
2018-11-05T21:25:45.714Z,3.27
2018-11-05T21:28:14.331Z,2.93
2018-11-05T21:30:42.788Z,3.00
2018-11-05T21:33:11.801Z,2.67
2018-11-05T21:35:44.054Z,3.27
2018-11-05T21:38:13.023Z,3.13
2018-11-05T21:40:42.230Z,3.03
2018-11-05T21:43:10.484Z,2.97
2018-11-05T21:45:39.502Z,3.00
2018-11-05T21:48:08.094Z,3.00
2018-11-05T21:50:36.787Z,3.40
2018-11-05T21:53:05.399Z,3.00
2018-11-05T21:55:33.575Z,4.50
2018-11-05T21:58:01.590Z,3.07
2018-11-05T22:00:32.094Z,3.03
2018-11-05T22:03:02.734Z,3.77
2018-11-05T22:05:31.787Z,2.70
2018-11-05T22:08:00.248Z,3.57
2018-11-05T22:10:30.143Z,2.33
2018-11-05T22:13:00.501Z,2.60
2018-11-05T22:15:36.806Z,2.77
2018-11-05T22:18:05.908Z,3.13
2018-11-05T22:20:34.277Z,2.47
2018-11-05T22:23:02.908Z,3.83
2018-11-05T22:25:31.462Z,2.43
2018-11-05T22:28:00.954Z,2.50
2018-11-05T22:30:28.599Z,2.60
2018-11-05T22:33:02.391Z,2.40
2018-11-05T22:35:30.751Z,2.73
2018-11-05T22:38:02.817Z,2.50
2018-11-05T22:40:31.534Z,2.53
2018-11-05T22:43:00.135Z,2.90
2018-11-05T22:45:28.951Z,2.17
2018-11-05T22:47:57.035Z,2.57
2018-11-05T22:50:25.109Z,3.47
2018-11-05T22:52:53.657Z,2.53
2018-11-05T22:55:21.817Z,2.50
2018-11-05T22:57:49.830Z,2.07
2018-11-05T23:00:24.148Z,2.80
2018-11-05T23:04:01.922Z,2.40
2018-11-05T23:06:30.990Z,2.23
2018-11-05T23:09:03.292Z,2.20
2018-11-05T23:11:31.537Z,2.17
2018-11-05T23:14:00.540Z,2.60
2018-11-05T23:16:32.159Z,3.87
2018-11-05T23:19:06.522Z,2.37
2018-11-05T23:21:36.740Z,2.30
2018-11-05T23:24:05.157Z,2.57
2018-11-05T23:26:34.319Z,2.27
2018-11-05T23:29:03.859Z,2.47
2018-11-05T23:31:31.988Z,2.87
2018-11-05T23:34:00.793Z,2.70
2018-11-05T23:36:30.231Z,2.50
2018-11-05T23:38:58.075Z,2.50
2018-11-05T23:41:25.872Z,2.27
2018-11-05T23:43:53.956Z,2.40
2018-11-05T23:46:22.561Z,2.53
2018-11-05T23:48:50.468Z,2.47
2018-11-05T23:51:19.276Z,2.77
2018-11-05T23:53:47.052Z,2.60
2018-11-05T23:56:15.004Z,2.70
2018-11-05T23:58:42.775Z,2.87
